sensor_id;sensor_type;location;lat;lon;timestamp;P1;durP1;ratioP1;P2;durP2;ratioP2
37431;SDS011;23292;51.300;6.252;2022-12-05T00:02:23;55.97;;;25.67;;
37431;SDS011;23292;51.300;6.252;2022-12-05T00:04:50;62.28;;;26.95;;
37431;SDS011;23292;51.300;6.252;2022-12-05T00:07:17;54.05;;;25.10;;
37431;SDS011;23292;51.300;6.252;2022-12-05T00:09:44;64.43;;;27.70;;
37431;SDS011;23292;51.300;6.252;2022-12-05T00:12:10;56.38;;;26.08;;
37431;SDS011;23292;51.300;6.252;2022-12-05T00:14:37;63.67;;;27.17;;
37431;SDS011;23292;51.300;6.252;2022-12-05T00:17:04;57.75;;;25.85;;
37431;SDS011;23292;51.300;6.252;2022-12-05T00:19:31;58.15;;;27.48;;
37431;SDS011;23292;51.300;6.252;2022-12-05T00:21:57;59.40;;;25.45;;
37431;SDS011;23292;51.300;6.252;2022-12-05T00:24:24;65.85;;;28.13;;
37431;SDS011;23292;51.300;6.252;2022-12-05T00:26:51;55.53;;;25.83;;
37431;SDS011;23292;51.300;6.252;2022-12-05T00:29:18;58.83;;;25.73;;
37431;SDS011;23292;51.300;6.252;2022-12-05T00:31:44;65.65;;;28.38;;
37431;SDS011;23292;51.300;6.252;2022-12-05T00:34:11;65.43;;;27.83;;
37431;SDS011;23292;51.300;6.252;2022-12-05T00:36:38;58.72;;;26.60;;
37431;SDS011;23292;51.300;6.252;2022-12-05T00:39:06;59.00;;;27.30;;
37431;SDS011;23292;51.300;6.252;2022-12-05T00:41:36;64.38;;;27.75;;
37431;SDS011;23292;51.300;6.252;2022-12-05T00:44:03;56.20;;;26.85;;
37431;SDS011;23292;51.300;6.252;2022-12-05T00:46:30;61.53;;;27.08;;
37431;SDS011;23292;51.300;6.252;2022-12-05T00:48:59;65.45;;;27.33;;
37431;SDS011;23292;51.300;6.252;2022-12-05T00:51:31;61.08;;;28.33;;
37431;SDS011;23292;51.300;6.252;2022-12-05T00:54:01;61.25;;;26.08;;
37431;SDS011;23292;51.300;6.252;2022-12-05T00:56:29;62.33;;;27.17;;
37431;SDS011;23292;51.300;6.252;2022-12-05T00:58:58;64.75;;;27.90;;
37431;SDS011;23292;51.300;6.252;2022-12-05T01:01:26;64.00;;;27.90;;
37431;SDS011;23292;51.300;6.252;2022-12-05T01:03:59;61.55;;;27.80;;
37431;SDS011;23292;51.300;6.252;2022-12-05T01:06:28;61.35;;;27.60;;
37431;SDS011;23292;51.300;6.252;2022-12-05T01:08:55;63.92;;;28.98;;
37431;SDS011;23292;51.300;6.252;2022-12-05T01:11:22;56.45;;;27.10;;
37431;SDS011;23292;51.300;6.252;2022-12-05T01:13:50;64.47;;;27.98;;
37431;SDS011;23292;51.300;6.252;2022-12-05T01:16:28;63.50;;;26.48;;
37431;SDS011;23292;51.300;6.252;2022-12-05T01:18:57;64.38;;;27.40;;
37431;SDS011;23292;51.300;6.252;2022-12-05T01:21:25;63.90;;;26.95;;
37431;SDS011;23292;51.300;6.252;2022-12-05T01:23:52;60.90;;;26.58;;
37431;SDS011;23292;51.300;6.252;2022-12-05T01:26:20;64.55;;;28.83;;
37431;SDS011;23292;51.300;6.252;2022-12-05T01:28:48;59.30;;;26.75;;
37431;SDS011;23292;51.300;6.252;2022-12-05T01:31:17;60.15;;;27.48;;
37431;SDS011;23292;51.300;6.252;2022-12-05T01:33:52;59.88;;;25.90;;
37431;SDS011;23292;51.300;6.252;2022-12-05T01:36:21;62.55;;;27.13;;
37431;SDS011;23292;51.300;6.252;2022-12-05T01:38:49;60.35;;;26.63;;
37431;SDS011;23292;51.300;6.252;2022-12-05T01:41:20;54.58;;;27.08;;
37431;SDS011;23292;51.300;6.252;2022-12-05T01:46:22;54.83;;;25.08;;
37431;SDS011;23292;51.300;6.252;2022-12-05T01:48:50;54.83;;;25.52;;
37431;SDS011;23292;51.300;6.252;2022-12-05T01:51:20;62.78;;;28.30;;
37431;SDS011;23292;51.300;6.252;2022-12-05T01:53:48;59.67;;;27.25;;
37431;SDS011;23292;51.300;6.252;2022-12-05T01:56:15;62.03;;;26.42;;
37431;SDS011;23292;51.300;6.252;2022-12-05T01:58:43;56.85;;;25.38;;
37431;SDS011;23292;51.300;6.252;2022-12-05T02:01:11;62.00;;;26.90;;
37431;SDS011;23292;51.300;6.252;2022-12-05T02:03:41;66.28;;;27.70;;
37431;SDS011;23292;51.300;6.252;2022-12-05T02:06:11;58.45;;;27.23;;
37431;SDS011;23292;51.300;6.252;2022-12-05T02:08:38;65.57;;;27.42;;
37431;SDS011;23292;51.300;6.252;2022-12-05T02:11:06;59.22;;;26.88;;
37431;SDS011;23292;51.300;6.252;2022-12-05T02:18:53;60.30;;;28.25;;
37431;SDS011;23292;51.300;6.252;2022-12-05T02:32:43;56.42;;;26.25;;
37431;SDS011;23292;51.300;6.252;2022-12-05T02:41:29;55.17;;;26.95;;
37431;SDS011;23292;51.300;6.252;2022-12-05T02:44:04;52.95;;;25.55;;
37431;SDS011;23292;51.300;6.252;2022-12-05T02:46:39;58.67;;;27.30;;
37431;SDS011;23292;51.300;6.252;2022-12-05T02:49:10;54.40;;;27.05;;
37431;SDS011;23292;51.300;6.252;2022-12-05T02:51:42;62.00;;;28.83;;
37431;SDS011;23292;51.300;6.252;2022-12-05T02:54:13;60.40;;;28.48;;
37431;SDS011;23292;51.300;6.252;2022-12-05T02:56:43;63.05;;;30.75;;
37431;SDS011;23292;51.300;6.252;2022-12-05T02:59:12;62.85;;;30.02;;
37431;SDS011;23292;51.300;6.252;2022-12-05T03:01:45;61.53;;;28.80;;
37431;SDS011;23292;51.300;6.252;2022-12-05T03:04:12;58.28;;;28.67;;
37431;SDS011;23292;51.300;6.252;2022-12-05T03:09:15;53.92;;;26.90;;
37431;SDS011;23292;51.300;6.252;2022-12-05T03:14:14;57.55;;;27.17;;
37431;SDS011;23292;51.300;6.252;2022-12-05T03:16:48;55.70;;;27.77;;
37431;SDS011;23292;51.300;6.252;2022-12-05T03:19:23;55.33;;;25.43;;
37431;SDS011;23292;51.300;6.252;2022-12-05T03:22:36;55.97;;;26.40;;
37431;SDS011;23292;51.300;6.252;2022-12-05T03:25:02;57.80;;;27.67;;
37431;SDS011;23292;51.300;6.252;2022-12-05T03:27:32;56.20;;;26.95;;
37431;SDS011;23292;51.300;6.252;2022-12-05T03:30:16;60.03;;;27.23;;
37431;SDS011;23292;51.300;6.252;2022-12-05T03:38:09;57.13;;;26.30;;
37431;SDS011;23292;51.300;6.252;2022-12-05T03:43:39;57.85;;;26.98;;
37431;SDS011;23292;51.300;6.252;2022-12-05T03:46:26;63.97;;;29.00;;
37431;SDS011;23292;51.300;6.252;2022-12-05T03:51:40;67.68;;;30.20;;
37431;SDS011;23292;51.300;6.252;2022-12-05T03:54:18;62.58;;;27.48;;
37431;SDS011;23292;51.300;6.252;2022-12-05T03:57:00;60.50;;;28.77;;
37431;SDS011;23292;51.300;6.252;2022-12-05T03:59:34;63.95;;;28.65;;
37431;SDS011;23292;51.300;6.252;2022-12-05T04:02:11;62.50;;;29.00;;
37431;SDS011;23292;51.300;6.252;2022-12-05T04:04:47;58.13;;;27.67;;
37431;SDS011;23292;51.300;6.252;2022-12-05T04:07:21;58.60;;;28.55;;
37431;SDS011;23292;51.300;6.252;2022-12-05T04:09:50;63.65;;;30.23;;
37431;SDS011;23292;51.300;6.252;2022-12-05T04:12:25;64.78;;;30.05;;
37431;SDS011;23292;51.300;6.252;2022-12-05T04:14:55;64.72;;;29.98;;
37431;SDS011;23292;51.300;6.252;2022-12-05T04:20:20;60.35;;;29.83;;
37431;SDS011;23292;51.300;6.252;2022-12-05T04:23:13;60.08;;;27.63;;
37431;SDS011;23292;51.300;6.252;2022-12-05T04:28:55;63.08;;;28.60;;
37431;SDS011;23292;51.300;6.252;2022-12-05T04:31:31;62.60;;;30.08;;
37431;SDS011;23292;51.300;6.252;2022-12-05T04:34:03;66.40;;;29.40;;
37431;SDS011;23292;51.300;6.252;2022-12-05T04:36:34;67.72;;;31.42;;
37431;SDS011;23292;51.300;6.252;2022-12-05T04:39:12;68.35;;;29.98;;
37431;SDS011;23292;51.300;6.252;2022-12-05T04:41:50;65.60;;;29.77;;
37431;SDS011;23292;51.300;6.252;2022-12-05T04:44:17;58.65;;;27.52;;
37431;SDS011;23292;51.300;6.252;2022-12-05T04:49:21;59.20;;;26.45;;
37431;SDS011;23292;51.300;6.252;2022-12-05T04:51:51;64.35;;;29.55;;
37431;SDS011;23292;51.300;6.252;2022-12-05T04:54:27;62.92;;;29.08;;
37431;SDS011;23292;51.300;6.252;2022-12-05T04:57:32;61.20;;;27.55;;
37431;SDS011;23292;51.300;6.252;2022-12-05T04:59:52;61.35;;;26.38;;
37431;SDS011;23292;51.300;6.252;2022-12-05T05:02:25;65.60;;;28.13;;
37431;SDS011;23292;51.300;6.252;2022-12-05T05:04:57;58.20;;;26.85;;
37431;SDS011;23292;51.300;6.252;2022-12-05T05:07:27;56.53;;;25.77;;
37431;SDS011;23292;51.300;6.252;2022-12-05T05:09:54;53.80;;;26.15;;
37431;SDS011;23292;51.300;6.252;2022-12-05T05:12:22;60.45;;;25.77;;
37431;SDS011;23292;51.300;6.252;2022-12-05T05:14:49;57.60;;;26.08;;
37431;SDS011;23292;51.300;6.252;2022-12-05T05:17:16;59.28;;;26.67;;
37431;SDS011;23292;51.300;6.252;2022-12-05T05:19:42;55.17;;;27.38;;
37431;SDS011;23292;51.300;6.252;2022-12-05T05:22:09;59.88;;;26.33;;
37431;SDS011;23292;51.300;6.252;2022-12-05T05:24:35;53.72;;;25.15;;
37431;SDS011;23292;51.300;6.252;2022-12-05T05:27:02;58.85;;;26.42;;
37431;SDS011;23292;51.300;6.252;2022-12-05T05:29:29;60.50;;;26.05;;
37431;SDS011;23292;51.300;6.252;2022-12-05T05:31:56;57.45;;;26.33;;
37431;SDS011;23292;51.300;6.252;2022-12-05T05:34:22;54.20;;;25.95;;
37431;SDS011;23292;51.300;6.252;2022-12-05T05:36:51;57.67;;;26.50;;
37431;SDS011;23292;51.300;6.252;2022-12-05T05:39:18;50.28;;;25.48;;
37431;SDS011;23292;51.300;6.252;2022-12-05T05:41:45;50.08;;;25.45;;
37431;SDS011;23292;51.300;6.252;2022-12-05T05:44:11;56.00;;;24.52;;
37431;SDS011;23292;51.300;6.252;2022-12-05T05:46:38;53.42;;;24.27;;
37431;SDS011;23292;51.300;6.252;2022-12-05T05:49:05;56.38;;;27.17;;
37431;SDS011;23292;51.300;6.252;2022-12-05T05:51:31;64.32;;;25.35;;
37431;SDS011;23292;51.300;6.252;2022-12-05T05:53:58;62.88;;;26.67;;
37431;SDS011;23292;51.300;6.252;2022-12-05T05:56:25;64.82;;;26.45;;
37431;SDS011;23292;51.300;6.252;2022-12-05T05:58:56;60.22;;;26.23;;
37431;SDS011;23292;51.300;6.252;2022-12-05T06:01:25;58.42;;;25.88;;
37431;SDS011;23292;51.300;6.252;2022-12-05T06:03:52;58.42;;;26.63;;
37431;SDS011;23292;51.300;6.252;2022-12-05T06:06:19;60.15;;;26.95;;
37431;SDS011;23292;51.300;6.252;2022-12-05T06:08:46;63.88;;;27.77;;
37431;SDS011;23292;51.300;6.252;2022-12-05T06:11:14;57.85;;;27.08;;
37431;SDS011;23292;51.300;6.252;2022-12-05T06:13:51;60.13;;;26.63;;
37431;SDS011;23292;51.300;6.252;2022-12-05T06:16:19;58.35;;;26.85;;
37431;SDS011;23292;51.300;6.252;2022-12-05T06:18:47;61.65;;;27.55;;
37431;SDS011;23292;51.300;6.252;2022-12-05T06:21:15;59.83;;;27.98;;
37431;SDS011;23292;51.300;6.252;2022-12-05T06:23:42;59.95;;;27.15;;
37431;SDS011;23292;51.300;6.252;2022-12-05T06:26:11;64.57;;;28.67;;
37431;SDS011;23292;51.300;6.252;2022-12-05T06:28:39;60.50;;;26.73;;
37431;SDS011;23292;51.300;6.252;2022-12-05T06:31:10;60.13;;;27.17;;
37431;SDS011;23292;51.300;6.252;2022-12-05T06:33:45;58.30;;;26.30;;
37431;SDS011;23292;51.300;6.252;2022-12-05T06:36:13;59.28;;;28.13;;
37431;SDS011;23292;51.300;6.252;2022-12-05T06:38:42;59.78;;;28.23;;
37431;SDS011;23292;51.300;6.252;2022-12-05T06:41:13;63.42;;;27.40;;
37431;SDS011;23292;51.300;6.252;2022-12-05T06:43:41;64.45;;;27.20;;
37431;SDS011;23292;51.300;6.252;2022-12-05T06:46:09;61.40;;;26.73;;
37431;SDS011;23292;51.300;6.252;2022-12-05T06:48:37;55.72;;;26.58;;
37431;SDS011;23292;51.300;6.252;2022-12-05T06:51:07;64.13;;;27.80;;
37431;SDS011;23292;51.300;6.252;2022-12-05T06:53:35;65.22;;;28.83;;
37431;SDS011;23292;51.300;6.252;2022-12-05T06:56:03;62.30;;;28.60;;
37431;SDS011;23292;51.300;6.252;2022-12-05T06:58:33;61.83;;;28.00;;
37431;SDS011;23292;51.300;6.252;2022-12-05T07:00:59;59.50;;;26.63;;
37431;SDS011;23292;51.300;6.252;2022-12-05T07:03:47;60.80;;;28.08;;
37431;SDS011;23292;51.300;6.252;2022-12-05T07:06:14;59.72;;;27.23;;
37431;SDS011;23292;51.300;6.252;2022-12-05T07:08:41;56.67;;;26.13;;
37431;SDS011;23292;51.300;6.252;2022-12-05T07:11:09;64.82;;;28.20;;
37431;SDS011;23292;51.300;6.252;2022-12-05T07:13:36;58.38;;;27.33;;
37431;SDS011;23292;51.300;6.252;2022-12-05T07:16:03;59.78;;;25.77;;
37431;SDS011;23292;51.300;6.252;2022-12-05T07:18:32;57.35;;;26.13;;
37431;SDS011;23292;51.300;6.252;2022-12-05T07:21:02;63.13;;;26.48;;
37431;SDS011;23292;51.300;6.252;2022-12-05T07:23:39;59.88;;;27.05;;
37431;SDS011;23292;51.300;6.252;2022-12-05T07:26:07;57.72;;;27.20;;
37431;SDS011;23292;51.300;6.252;2022-12-05T07:28:35;55.45;;;25.40;;
37431;SDS011;23292;51.300;6.252;2022-12-05T07:31:09;57.38;;;26.08;;
37431;SDS011;23292;51.300;6.252;2022-12-05T07:33:37;52.33;;;24.75;;
37431;SDS011;23292;51.300;6.252;2022-12-05T07:36:05;58.10;;;26.30;;
37431;SDS011;23292;51.300;6.252;2022-12-05T07:38:34;55.95;;;25.33;;
37431;SDS011;23292;51.300;6.252;2022-12-05T07:41:05;49.40;;;23.55;;
37431;SDS011;23292;51.300;6.252;2022-12-05T07:43:39;44.88;;;21.88;;
37431;SDS011;23292;51.300;6.252;2022-12-05T07:46:07;41.08;;;21.50;;
37431;SDS011;23292;51.300;6.252;2022-12-05T07:48:36;45.47;;;19.73;;
37431;SDS011;23292;51.300;6.252;2022-12-05T07:51:04;44.38;;;20.58;;
37431;SDS011;23292;51.300;6.252;2022-12-05T07:53:32;47.67;;;22.15;;
37431;SDS011;23292;51.300;6.252;2022-12-05T07:56:03;43.28;;;20.65;;
37431;SDS011;23292;51.300;6.252;2022-12-05T07:58:33;46.17;;;20.77;;
37431;SDS011;23292;51.300;6.252;2022-12-05T08:01:04;39.28;;;20.00;;
37431;SDS011;23292;51.300;6.252;2022-12-05T08:03:34;42.30;;;20.83;;
37431;SDS011;23292;51.300;6.252;2022-12-05T08:06:06;36.58;;;20.35;;
37431;SDS011;23292;51.300;6.252;2022-12-05T08:08:35;42.97;;;21.67;;
37431;SDS011;23292;51.300;6.252;2022-12-05T08:11:21;42.92;;;21.52;;
37431;SDS011;23292;51.300;6.252;2022-12-05T08:13:50;42.22;;;20.85;;
37431;SDS011;23292;51.300;6.252;2022-12-05T08:16:19;37.63;;;20.48;;
37431;SDS011;23292;51.300;6.252;2022-12-05T08:18:47;42.42;;;20.92;;
37431;SDS011;23292;51.300;6.252;2022-12-05T08:21:15;36.50;;;19.02;;
37431;SDS011;23292;51.300;6.252;2022-12-05T08:23:44;37.15;;;19.73;;
37431;SDS011;23292;51.300;6.252;2022-12-05T08:26:15;41.97;;;20.67;;
37431;SDS011;23292;51.300;6.252;2022-12-05T08:28:50;36.42;;;19.60;;
37431;SDS011;23292;51.300;6.252;2022-12-05T08:31:18;38.03;;;19.10;;
37431;SDS011;23292;51.300;6.252;2022-12-05T08:33:46;39.90;;;20.65;;
37431;SDS011;23292;51.300;6.252;2022-12-05T08:36:13;38.22;;;20.05;;
37431;SDS011;23292;51.300;6.252;2022-12-05T08:38:41;39.78;;;20.70;;
37431;SDS011;23292;51.300;6.252;2022-12-05T08:41:09;42.47;;;21.40;;
37431;SDS011;23292;51.300;6.252;2022-12-05T08:43:37;43.60;;;20.83;;
37431;SDS011;23292;51.300;6.252;2022-12-05T08:46:04;42.67;;;20.60;;
37431;SDS011;23292;51.300;6.252;2022-12-05T08:48:32;35.80;;;20.00;;
37431;SDS011;23292;51.300;6.252;2022-12-05T08:51:03;36.42;;;19.70;;
37431;SDS011;23292;51.300;6.252;2022-12-05T08:53:35;36.42;;;20.05;;
37431;SDS011;23292;51.300;6.252;2022-12-05T08:56:09;38.40;;;19.75;;
37431;SDS011;23292;51.300;6.252;2022-12-05T08:58:37;35.30;;;19.73;;
37431;SDS011;23292;51.300;6.252;2022-12-05T09:01:05;39.97;;;19.98;;
37431;SDS011;23292;51.300;6.252;2022-12-05T09:03:42;35.20;;;17.95;;
37431;SDS011;23292;51.300;6.252;2022-12-05T09:06:14;37.65;;;19.17;;
37431;SDS011;23292;51.300;6.252;2022-12-05T09:08:43;37.38;;;18.92;;
37431;SDS011;23292;51.300;6.252;2022-12-05T09:11:11;34.78;;;18.95;;
37431;SDS011;23292;51.300;6.252;2022-12-05T09:13:44;36.00;;;18.60;;
37431;SDS011;23292;51.300;6.252;2022-12-05T09:16:20;35.42;;;18.38;;
37431;SDS011;23292;51.300;6.252;2022-12-05T09:18:49;34.63;;;16.75;;
37431;SDS011;23292;51.300;6.252;2022-12-05T09:21:18;31.70;;;17.52;;
37431;SDS011;23292;51.300;6.252;2022-12-05T09:23:50;34.90;;;17.60;;
37431;SDS011;23292;51.300;6.252;2022-12-05T09:26:18;36.90;;;18.27;;
37431;SDS011;23292;51.300;6.252;2022-12-05T09:28:50;38.65;;;19.10;;
37431;SDS011;23292;51.300;6.252;2022-12-05T09:31:21;34.65;;;18.30;;
37431;SDS011;23292;51.300;6.252;2022-12-05T09:33:50;31.35;;;17.10;;
37431;SDS011;23292;51.300;6.252;2022-12-05T09:36:19;35.20;;;17.83;;
37431;SDS011;23292;51.300;6.252;2022-12-05T09:38:48;34.85;;;18.73;;
37431;SDS011;23292;51.300;6.252;2022-12-05T09:47:11;28.10;;;16.38;;
37431;SDS011;23292;51.300;6.252;2022-12-05T09:49:46;32.13;;;16.55;;
37431;SDS011;23292;51.300;6.252;2022-12-05T09:52:21;30.85;;;17.25;;
37431;SDS011;23292;51.300;6.252;2022-12-05T09:54:52;33.63;;;17.40;;
37431;SDS011;23292;51.300;6.252;2022-12-05T09:57:33;28.77;;;16.05;;
37431;SDS011;23292;51.300;6.252;2022-12-05T10:00:03;31.55;;;16.00;;
37431;SDS011;23292;51.300;6.252;2022-12-05T10:05:15;32.45;;;17.65;;
37431;SDS011;23292;51.300;6.252;2022-12-05T10:19:27;28.67;;;16.00;;
37431;SDS011;23292;51.300;6.252;2022-12-05T10:22:10;28.67;;;14.98;;
37431;SDS011;23292;51.300;6.252;2022-12-05T10:24:47;26.77;;;15.23;;
37431;SDS011;23292;51.300;6.252;2022-12-05T10:27:35;23.52;;;13.98;;
37431;SDS011;23292;51.300;6.252;2022-12-05T10:30:15;25.40;;;14.40;;
37431;SDS011;23292;51.300;6.252;2022-12-05T10:32:55;29.42;;;15.13;;
37431;SDS011;23292;51.300;6.252;2022-12-05T10:35:29;26.38;;;15.65;;
37431;SDS011;23292;51.300;6.252;2022-12-05T10:38:10;25.40;;;14.25;;
37431;SDS011;23292;51.300;6.252;2022-12-05T10:40:45;26.58;;;14.57;;
37431;SDS011;23292;51.300;6.252;2022-12-05T10:43:24;30.25;;;15.85;;
37431;SDS011;23292;51.300;6.252;2022-12-05T10:45:53;27.33;;;14.98;;
37431;SDS011;23292;51.300;6.252;2022-12-05T10:48:20;26.90;;;13.80;;
37431;SDS011;23292;51.300;6.252;2022-12-05T10:50:49;25.63;;;13.85;;
37431;SDS011;23292;51.300;6.252;2022-12-05T10:53:19;25.20;;;13.30;;
37431;SDS011;23292;51.300;6.252;2022-12-05T10:55:49;22.77;;;13.35;;
37431;SDS011;23292;51.300;6.252;2022-12-05T10:58:37;26.15;;;13.43;;
37431;SDS011;23292;51.300;6.252;2022-12-05T11:01:07;26.40;;;14.23;;
37431;SDS011;23292;51.300;6.252;2022-12-05T11:03:39;23.00;;;13.43;;
37431;SDS011;23292;51.300;6.252;2022-12-05T11:06:14;27.42;;;14.88;;
37431;SDS011;23292;51.300;6.252;2022-12-05T11:08:57;25.20;;;14.32;;
37431;SDS011;23292;51.300;6.252;2022-12-05T11:11:41;24.13;;;13.75;;
37431;SDS011;23292;51.300;6.252;2022-12-05T11:14:34;25.45;;;13.68;;
37431;SDS011;23292;51.300;6.252;2022-12-05T11:17:02;25.73;;;15.07;;
37431;SDS011;23292;51.300;6.252;2022-12-05T11:19:32;24.20;;;14.27;;
37431;SDS011;23292;51.300;6.252;2022-12-05T11:22:00;23.35;;;13.70;;
37431;SDS011;23292;51.300;6.252;2022-12-05T11:24:31;24.08;;;13.50;;
37431;SDS011;23292;51.300;6.252;2022-12-05T11:29:41;22.40;;;13.00;;
37431;SDS011;23292;51.300;6.252;2022-12-05T11:32:17;23.30;;;12.80;;
37431;SDS011;23292;51.300;6.252;2022-12-05T11:40:11;21.48;;;13.00;;
37431;SDS011;23292;51.300;6.252;2022-12-05T11:56:28;21.60;;;12.63;;
37431;SDS011;23292;51.300;6.252;2022-12-05T12:04:46;19.77;;;12.45;;
37431;SDS011;23292;51.300;6.252;2022-12-05T12:07:38;21.00;;;11.80;;
37431;SDS011;23292;51.300;6.252;2022-12-05T12:10:13;18.75;;;11.55;;
37431;SDS011;23292;51.300;6.252;2022-12-05T12:12:47;21.50;;;11.52;;
37431;SDS011;23292;51.300;6.252;2022-12-05T12:32:11;20.70;;;11.98;;
37431;SDS011;23292;51.300;6.252;2022-12-05T12:52:00;21.25;;;11.90;;
37431;SDS011;23292;51.300;6.252;2022-12-05T13:03:12;18.55;;;11.15;;
37431;SDS011;23292;51.300;6.252;2022-12-05T13:05:49;19.63;;;11.45;;
37431;SDS011;23292;51.300;6.252;2022-12-05T13:08:43;21.45;;;12.13;;
37431;SDS011;23292;51.300;6.252;2022-12-05T13:11:25;21.88;;;12.07;;
37431;SDS011;23292;51.300;6.252;2022-12-05T13:13:59;19.55;;;11.80;;
37431;SDS011;23292;51.300;6.252;2022-12-05T13:16:28;21.95;;;11.23;;
37431;SDS011;23292;51.300;6.252;2022-12-05T13:19:00;17.45;;;11.68;;
37431;SDS011;23292;51.300;6.252;2022-12-05T13:21:28;18.23;;;11.75;;
37431;SDS011;23292;51.300;6.252;2022-12-05T13:23:56;17.98;;;10.90;;
37431;SDS011;23292;51.300;6.252;2022-12-05T13:26:28;18.25;;;10.90;;
37431;SDS011;23292;51.300;6.252;2022-12-05T13:29:01;18.75;;;10.77;;
37431;SDS011;23292;51.300;6.252;2022-12-05T13:34:32;16.92;;;10.80;;
37431;SDS011;23292;51.300;6.252;2022-12-05T13:37:32;18.00;;;11.02;;
37431;SDS011;23292;51.300;6.252;2022-12-05T13:40:20;19.15;;;10.90;;
37431;SDS011;23292;51.300;6.252;2022-12-05T13:43:11;18.08;;;11.20;;
37431;SDS011;23292;51.300;6.252;2022-12-05T13:45:40;17.70;;;10.85;;
37431;SDS011;23292;51.300;6.252;2022-12-05T13:48:29;17.65;;;11.05;;
37431;SDS011;23292;51.300;6.252;2022-12-05T13:53:46;18.80;;;11.68;;
37431;SDS011;23292;51.300;6.252;2022-12-05T13:58:48;18.58;;;11.10;;
37431;SDS011;23292;51.300;6.252;2022-12-05T14:01:48;19.60;;;11.93;;
37431;SDS011;23292;51.300;6.252;2022-12-05T14:04:22;18.55;;;11.70;;
37431;SDS011;23292;51.300;6.252;2022-12-05T14:07:08;19.83;;;12.25;;
37431;SDS011;23292;51.300;6.252;2022-12-05T14:09:52;20.23;;;12.00;;
37431;SDS011;23292;51.300;6.252;2022-12-05T14:17:25;22.08;;;12.90;;
37431;SDS011;23292;51.300;6.252;2022-12-05T14:20:04;22.70;;;13.20;;
37431;SDS011;23292;51.300;6.252;2022-12-05T14:25:16;21.27;;;11.30;;
37431;SDS011;23292;51.300;6.252;2022-12-05T14:28:01;17.92;;;10.57;;
37431;SDS011;23292;51.300;6.252;2022-12-05T14:33:30;23.25;;;13.40;;
37431;SDS011;23292;51.300;6.252;2022-12-05T14:36:03;22.85;;;12.38;;
37431;SDS011;23292;51.300;6.252;2022-12-05T14:38:33;22.40;;;12.93;;
37431;SDS011;23292;51.300;6.252;2022-12-05T14:41:13;23.63;;;12.60;;
37431;SDS011;23292;51.300;6.252;2022-12-05T14:43:42;20.45;;;12.23;;
37431;SDS011;23292;51.300;6.252;2022-12-05T14:46:18;22.48;;;13.38;;
37431;SDS011;23292;51.300;6.252;2022-12-05T14:48:51;24.38;;;14.02;;
37431;SDS011;23292;51.300;6.252;2022-12-05T14:54:02;21.13;;;13.45;;
37431;SDS011;23292;51.300;6.252;2022-12-05T14:56:33;21.10;;;12.48;;
37431;SDS011;23292;51.300;6.252;2022-12-05T15:01:41;22.52;;;12.57;;
37431;SDS011;23292;51.300;6.252;2022-12-05T15:04:15;21.58;;;13.20;;
37431;SDS011;23292;51.300;6.252;2022-12-05T15:09:26;21.70;;;12.52;;
37431;SDS011;23292;51.300;6.252;2022-12-05T15:12:15;24.60;;;13.75;;
37431;SDS011;23292;51.300;6.252;2022-12-05T15:14:55;22.88;;;13.70;;
37431;SDS011;23292;51.300;6.252;2022-12-05T15:17:29;23.50;;;13.73;;
37431;SDS011;23292;51.300;6.252;2022-12-05T15:20:12;25.30;;;13.85;;
37431;SDS011;23292;51.300;6.252;2022-12-05T15:22:42;25.63;;;13.90;;
37431;SDS011;23292;51.300;6.252;2022-12-05T15:25:13;20.02;;;12.45;;
37431;SDS011;23292;51.300;6.252;2022-12-05T15:27:51;19.10;;;11.88;;
37431;SDS011;23292;51.300;6.252;2022-12-05T15:30:19;22.05;;;12.73;;
37431;SDS011;23292;51.300;6.252;2022-12-05T15:32:46;22.90;;;12.57;;
37431;SDS011;23292;51.300;6.252;2022-12-05T15:35:13;22.35;;;13.00;;
37431;SDS011;23292;51.300;6.252;2022-12-05T15:37:58;21.98;;;13.18;;
37431;SDS011;23292;51.300;6.252;2022-12-05T15:40:33;20.55;;;12.35;;
37431;SDS011;23292;51.300;6.252;2022-12-05T15:43:24;20.23;;;12.32;;
37431;SDS011;23292;51.300;6.252;2022-12-05T15:46:18;19.90;;;12.43;;
37431;SDS011;23292;51.300;6.252;2022-12-05T15:48:49;19.42;;;11.98;;
37431;SDS011;23292;51.300;6.252;2022-12-05T15:51:17;19.70;;;12.00;;
37431;SDS011;23292;51.300;6.252;2022-12-05T15:53:55;19.90;;;11.02;;
37431;SDS011;23292;51.300;6.252;2022-12-05T15:56:28;19.08;;;11.88;;
37431;SDS011;23292;51.300;6.252;2022-12-05T15:59:02;19.00;;;12.15;;
37431;SDS011;23292;51.300;6.252;2022-12-05T16:01:39;19.77;;;12.18;;
37431;SDS011;23292;51.300;6.252;2022-12-05T16:06:55;18.70;;;11.13;;
37431;SDS011;23292;51.300;6.252;2022-12-05T16:09:27;23.65;;;12.57;;
37431;SDS011;23292;51.300;6.252;2022-12-05T16:12:02;19.17;;;12.07;;
37431;SDS011;23292;51.300;6.252;2022-12-05T16:14:32;17.90;;;11.63;;
37431;SDS011;23292;51.300;6.252;2022-12-05T16:17:22;22.05;;;12.77;;
37431;SDS011;23292;51.300;6.252;2022-12-05T16:19:49;29.38;;;15.85;;
37431;SDS011;23292;51.300;6.252;2022-12-05T16:22:18;28.55;;;15.13;;
37431;SDS011;23292;51.300;6.252;2022-12-05T16:27:28;21.80;;;13.07;;
37431;SDS011;23292;51.300;6.252;2022-12-05T16:30:17;22.05;;;13.00;;
37431;SDS011;23292;51.300;6.252;2022-12-05T16:32:46;22.95;;;11.98;;
37431;SDS011;23292;51.300;6.252;2022-12-05T16:38:07;21.88;;;13.70;;
37431;SDS011;23292;51.300;6.252;2022-12-05T16:41:02;23.92;;;13.55;;
37431;SDS011;23292;51.300;6.252;2022-12-05T16:46:03;21.75;;;13.50;;
37431;SDS011;23292;51.300;6.252;2022-12-05T16:48:44;20.65;;;12.65;;
37431;SDS011;23292;51.300;6.252;2022-12-05T16:51:30;18.02;;;12.02;;
37431;SDS011;23292;51.300;6.252;2022-12-05T16:54:06;20.95;;;13.02;;
37431;SDS011;23292;51.300;6.252;2022-12-05T16:56:33;19.50;;;12.52;;
37431;SDS011;23292;51.300;6.252;2022-12-05T16:59:03;23.77;;;14.40;;
37431;SDS011;23292;51.300;6.252;2022-12-05T17:01:31;23.65;;;14.20;;
37431;SDS011;23292;51.300;6.252;2022-12-05T17:04:04;23.58;;;14.02;;
37431;SDS011;23292;51.300;6.252;2022-12-05T17:06:31;29.92;;;16.23;;
37431;SDS011;23292;51.300;6.252;2022-12-05T17:08:57;22.25;;;14.30;;
37431;SDS011;23292;51.300;6.252;2022-12-05T17:11:26;24.40;;;15.15;;
37431;SDS011;23292;51.300;6.252;2022-12-05T17:13:55;25.08;;;15.35;;
37431;SDS011;23292;51.300;6.252;2022-12-05T17:16:23;25.10;;;14.32;;
37431;SDS011;23292;51.300;6.252;2022-12-05T17:18:52;24.65;;;14.70;;
37431;SDS011;23292;51.300;6.252;2022-12-05T17:21:20;23.38;;;14.52;;
37431;SDS011;23292;51.300;6.252;2022-12-05T17:23:49;23.13;;;13.52;;
37431;SDS011;23292;51.300;6.252;2022-12-05T17:26:17;20.08;;;12.45;;
37431;SDS011;23292;51.300;6.252;2022-12-05T17:28:45;19.05;;;11.82;;
37431;SDS011;23292;51.300;6.252;2022-12-05T17:31:13;20.92;;;12.95;;
37431;SDS011;23292;51.300;6.252;2022-12-05T17:33:43;22.30;;;13.32;;
37431;SDS011;23292;51.300;6.252;2022-12-05T17:36:11;20.40;;;12.85;;
37431;SDS011;23292;51.300;6.252;2022-12-05T17:38:38;20.73;;;13.25;;
37431;SDS011;23292;51.300;6.252;2022-12-05T17:41:06;23.05;;;13.82;;
37431;SDS011;23292;51.300;6.252;2022-12-05T17:43:33;19.65;;;11.50;;
37431;SDS011;23292;51.300;6.252;2022-12-05T17:46:00;18.52;;;11.73;;
37431;SDS011;23292;51.300;6.252;2022-12-05T17:48:27;17.95;;;11.23;;